Time;durP1;ratioP1;P1;durP2;ratioP2;P2;SDS_P1;SDS_P2;PMS_P1;PMS_P2;Temp;Humidity;BMP_temperature;BMP_pressure;BME280_temperature;BME280_humidity;BME280_pressure;Samples;Min_cycle;Max_cycle;Signal;HPM_P1;HPM_P2
2023/09/05 00:01:52;;;;;;;3.03;2.60;;;;;;;13.86;100.00;96986.75;4968666;28;101971;-67
2023/09/05 00:04:19;;;;;;;3.40;3.10;;;;;;;13.84;100.00;96986.19;4968618;28;105448;-67
2023/09/05 00:06:48;;;;;;;3.37;2.60;;;;;;;13.70;100.00;96982.34;4967795;28;105661;-67
2023/09/05 00:09:18;;;;;;;3.07;2.77;;;;;;;13.68;100.00;96984.47;4968677;28;101966;-67
2023/09/05 00:11:45;;;;;;;2.80;2.60;;;;;;;13.67;100.00;96991.66;4968557;28;105202;-67
2023/09/05 00:14:13;;;;;;;3.13;2.83;;;;;;;13.71;100.00;96990.09;4967783;28;105729;-67
2023/09/05 00:16:40;;;;;;;2.63;2.43;;;;;;;13.60;100.00;96987.59;4968506;28;101932;-67
2023/09/05 00:19:07;;;;;;;3.10;2.60;;;;;;;13.73;100.00;96987.97;4972415;28;102482;-67
2023/09/05 00:21:34;;;;;;;3.53;2.83;;;;;;;13.81;100.00;96986.69;4968398;28;101959;-67
2023/09/05 00:24:25;;;;;;;3.23;2.93;;;;;;;13.86;100.00;96992.09;4969855;28;102711;-67
2023/09/05 00:26:52;;;;;;;2.77;2.57;;;;;;;13.69;100.00;96986.06;4967289;28;105921;-67
2023/09/05 00:29:20;;;;;;;3.40;2.77;;;;;;;13.76;100.00;96986.66;4968448;28;102094;-67
2023/09/05 00:31:47;;;;;;;2.80;2.60;;;;;;;13.73;100.00;96989.84;4968358;28;105666;-67
2023/09/05 00:34:15;;;;;;;2.77;2.57;;;;;;;13.58;100.00;96984.38;4967737;28;105811;-67
2023/09/05 00:36:43;;;;;;;3.07;2.77;;;;;;;13.59;100.00;96978.78;4984753;28;101921;-67
2023/09/05 00:39:10;;;;;;;2.80;2.57;;;;;;;13.60;100.00;96976.91;4984722;28;105643;-67
2023/09/05 00:41:40;;;;;;;3.17;2.87;;;;;;;13.64;100.00;96972.66;4970490;28;101997;-67
2023/09/05 00:44:09;;;;;;;2.93;2.53;;;;;;;13.58;100.00;96971.00;4968151;28;105852;-67
2023/09/05 00:46:36;;;;;;;3.10;2.90;;;;;;;13.62;100.00;96961.44;4983959;28;105989;-67
2023/09/05 00:49:03;;;;;;;2.80;2.30;;;;;;;13.50;100.00;96964.25;4968023;28;102112;-67
2023/09/05 00:51:31;;;;;;;4.10;2.90;;;;;;;13.33;100.00;96960.09;4968254;28;105226;-67
2023/09/05 00:54:00;;;;;;;2.70;2.50;;;;;;;13.23;100.00;96960.00;4967459;28;105821;-67
2023/09/05 00:56:27;;;;;;;2.70;2.50;;;;;;;13.26;100.00;96954.97;4967860;28;101909;-69
2023/09/05 00:58:56;;;;;;;2.70;2.50;;;;;;;13.24;100.00;96961.63;4967779;28;104876;-62
2023/09/05 01:01:23;;;;;;;2.40;2.20;;;;;;;13.24;100.00;96956.28;4970715;28;104504;-66
2023/09/05 01:03:52;;;;;;;2.63;2.43;;;;;;;12.96;100.00;96954.66;4967957;28;105489;-65
2023/09/05 01:06:26;;;;;;;2.80;2.50;;;;;;;12.96;100.00;96954.66;4967289;28;105388;-66
2023/09/05 01:09:01;;;;;;;2.53;2.33;;;;;;;12.92;100.00;96947.38;4968047;28;102122;-67
2023/09/05 01:11:29;;;;;;;2.73;2.50;;;;;;;12.78;100.00;96956.81;4970151;28;103977;-67
2023/09/05 01:13:57;;;;;;;3.20;2.73;;;;;;;13.02;100.00;96955.53;4970721;28;105772;-68
2023/09/05 01:16:24;;;;;;;2.80;2.60;;;;;;;12.92;100.00;96952.72;4971185;28;101975;-68
2023/09/05 01:18:52;;;;;;;2.83;2.63;;;;;;;12.83;100.00;96954.22;4971113;28;105237;-68
2023/09/05 01:21:30;;;;;;;3.30;3.00;;;;;;;12.68;100.00;96959.38;4970387;28;105883;-67
2023/09/05 01:24:11;;;;;;;3.43;2.70;;;;;;;12.71;100.00;96958.91;4976177;28;101936;-66
2023/09/05 01:26:39;;;;;;;2.57;2.37;;;;;;;12.64;100.00;96961.75;4986462;28;105710;-67
2023/09/05 01:29:08;;;;;;;3.60;2.90;;;;;;;12.62;100.00;96957.72;4987630;28;102037;-67
2023/09/05 01:31:35;;;;;;;3.40;3.10;;;;;;;12.56;100.00;96964.84;4971076;28;105359;-67
2023/09/05 01:34:02;;;;;;;3.37;2.90;;;;;;;12.66;100.00;96958.84;4970386;28;105488;-67
2023/09/05 01:36:29;;;;;;;3.73;2.90;;;;;;;12.55;100.00;96957.09;4971012;28;102126;-67
2023/09/05 01:38:57;;;;;;;3.63;3.03;;;;;;;12.62;100.00;96953.19;4987294;28;105490;-68
2023/09/05 01:41:25;;;;;;;2.80;2.60;;;;;;;12.60;100.00;96954.50;4970011;28;105858;-68
2023/09/05 01:43:52;;;;;;;3.27;2.60;;;;;;;12.56;100.00;96948.84;4970912;28;101974;-67
2023/09/05 01:46:20;;;;;;;3.00;2.60;;;;;;;12.50;100.00;96951.69;4973554;28;104118;-67
2023/09/05 01:48:47;;;;;;;2.77;2.57;;;;;;;12.54;100.00;96944.81;4987210;28;101960;-67
2023/09/05 01:51:14;;;;;;;3.43;3.13;;;;;;;12.34;100.00;96941.88;4970643;28;105161;-67
2023/09/05 01:53:41;;;;;;;3.23;2.87;;;;;;;12.34;100.00;96932.03;4969986;28;105738;-67
2023/09/05 01:56:08;;;;;;;2.97;2.77;;;;;;;12.33;100.00;96932.28;4970545;28;101995;-67
2023/09/05 01:58:37;;;;;;;3.30;3.00;;;;;;;12.43;100.00;96935.88;4970692;28;105387;-67
2023/09/05 02:01:04;;;;;;;2.80;2.60;;;;;;;12.46;100.00;96931.91;4969843;28;105998;-67
2023/09/05 02:03:32;;;;;;;3.10;2.90;;;;;;;12.47;100.00;96931.66;4970559;28;102016;-67
2023/09/05 02:05:59;;;;;;;4.27;2.97;;;;;;;12.31;100.00;96931.75;4970444;28;105498;-67
2023/09/05 02:08:26;;;;;;;4.13;2.87;;;;;;;12.30;100.00;96940.75;4973190;28;105485;-67
2023/09/05 02:10:53;;;;;;;3.30;3.00;;;;;;;12.30;100.00;96938.91;4970333;28;104360;-67
2023/09/05 02:15:00;;;;;;;2.92;2.72;;;;;;;-141.26;100.00;62741.75;1199543;28;45793724;-67
2023/09/05 02:19:04;;;;;;;3.05;2.85;;;;;;;-141.26;100.00;62741.75;5;38269010;45792504;-67
2023/09/05 02:23:02;;;;;;;2.08;1.85;;;;;;;-141.26;100.00;62741.75;5;38269687;45774126;-67
2023/09/05 02:26:38;;;;;;;3.08;2.85;;;;;;;12.30;100.00;96938.91;5;38269551;45794475;-67
2023/09/05 02:29:06;;;;;;;4.13;3.37;;;;;;;12.19;100.00;96926.50;4969496;28;105434;-67
2023/09/05 02:31:34;;;;;;;3.57;3.20;;;;;;;12.06;100.00;96924.22;4971523;28;102275;-67
2023/09/05 02:34:04;;;;;;;3.37;2.80;;;;;;;11.99;100.00;96923.56;4971166;28;102569;-67
2023/09/05 02:36:31;;;;;;;3.27;3.07;;;;;;;11.98;100.00;96918.47;4985881;28;105566;-67
2023/09/05 02:38:59;;;;;;;4.43;3.10;;;;;;;12.00;100.00;96927.84;4969832;28;101964;-67
2023/09/05 02:41:26;;;;;;;3.70;3.40;;;;;;;12.04;100.00;96925.50;4969779;28;104835;-67
2023/09/05 02:43:53;;;;;;;3.33;3.03;;;;;;;12.09;100.00;96922.88;4972470;28;105822;-67
2023/09/05 02:46:21;;;;;;;3.50;3.20;;;;;;;12.12;100.00;96914.41;4969691;28;104090;-67
2023/09/05 02:48:49;;;;;;;2.90;2.70;;;;;;;12.13;100.00;96921.34;4969211;28;105401;-67
2023/09/05 02:51:16;;;;;;;2.97;2.77;;;;;;;11.89;100.00;96914.63;4969628;28;102165;-67
2023/09/05 02:53:43;;;;;;;3.40;3.10;;;;;;;11.76;100.00;96917.63;4969622;28;104190;-67
2023/09/05 02:56:10;;;;;;;2.80;2.60;;;;;;;11.55;100.00;96918.38;4968958;28;105439;-67
2023/09/05 02:58:37;;;;;;;3.43;3.13;;;;;;;11.61;100.00;96920.09;4969629;28;102024;-67
2023/09/05 03:01:11;;;;;;;3.40;3.10;;;;;;;11.66;100.00;96917.50;4969586;28;105218;-67
2023/09/05 03:03:39;;;;;;;3.43;3.20;;;;;;;11.70;100.00;96916.75;4969047;28;105797;-67
2023/09/05 03:06:12;;;;;;;2.90;2.70;;;;;;;11.64;100.00;96923.06;4973110;28;102158;-67
2023/09/05 03:08:42;;;;;;;3.37;3.03;;;;;;;11.63;100.00;96920.63;4968618;28;104958;-67
2023/09/05 03:11:09;;;;;;;4.40;4.00;;;;;;;11.60;100.00;96915.78;4969456;28;101930;-68
2023/09/05 03:13:36;;;;;;;3.80;3.40;;;;;;;11.65;100.00;96918.53;4986028;28;105607;-68
2023/09/05 03:16:04;;;;;;;4.10;3.20;;;;;;;11.73;100.00;96920.78;4968834;28;105518;-68
2023/09/05 03:18:33;;;;;;;4.03;3.60;;;;;;;11.78;100.00;96920.88;4969226;28;101976;-67
2023/09/05 03:21:00;;;;;;;4.03;3.43;;;;;;;11.79;100.00;96919.81;4969238;28;105387;-67
2023/09/05 03:23:32;;;;;;;4.83;3.70;;;;;;;11.83;100.00;96926.28;4985183;28;105523;-67
2023/09/05 03:26:00;;;;;;;3.60;3.30;;;;;;;11.86;100.00;96926.59;4972711;28;102003;-67
2023/09/05 03:28:39;;;;;;;3.80;3.40;;;;;;;11.74;100.00;96927.72;4971954;28;106326;-68
2023/09/05 03:31:08;;;;;;;4.23;3.20;;;;;;;11.78;100.00;96931.53;4972498;28;101975;-68
2023/09/05 03:33:35;;;;;;;3.70;3.40;;;;;;;11.74;100.00;96933.06;4988863;28;105454;-68
2023/09/05 03:36:03;;;;;;;3.70;3.40;;;;;;;11.72;100.00;96937.84;4988195;28;105667;-68
2023/09/05 03:38:35;;;;;;;3.80;3.40;;;;;;;11.74;100.00;96943.72;4972301;28;102166;-68
2023/09/05 03:41:03;;;;;;;5.47;4.00;;;;;;;11.77;100.00;96944.03;4972216;28;105212;-68
2023/09/05 03:43:30;;;;;;;3.97;3.50;;;;;;;11.68;100.00;96939.38;4988002;28;105773;-66
2023/09/05 03:45:58;;;;;;;4.20;3.73;;;;;;;11.62;100.00;96948.34;4972099;28;101875;-66
2023/09/05 03:48:25;;;;;;;3.80;3.37;;;;;;;11.69;100.00;96946.31;4991530;28;103977;-66
2023/09/05 03:50:52;;;;;;;3.73;3.37;;;;;;;11.70;100.00;96947.91;4972127;28;102048;-66
2023/09/05 03:53:20;;;;;;;4.20;3.70;;;;;;;11.68;100.00;96952.69;4972020;28;105427;-66
2023/09/05 03:55:52;;;;;;;4.00;3.60;;;;;;;11.66;100.00;96954.81;4971532;28;105512;-66
2023/09/05 03:58:19;;;;;;;4.23;3.43;;;;;;;11.65;100.00;96953.16;4972003;28;102032;-66
2023/09/05 04:00:46;;;;;;;3.70;3.40;;;;;;;11.59;100.00;96948.81;4988529;28;105303;-66
2023/09/05 04:03:14;;;;;;;3.53;3.23;;;;;;;11.57;100.00;96948.22;4971216;28;106054;-66
2023/09/05 04:05:41;;;;;;;3.77;3.47;;;;;;;11.56;100.00;96946.63;4971722;28;101867;-66
2023/09/05 04:08:10;;;;;;;3.03;2.80;;;;;;;11.45;100.00;96940.31;4971835;28;105393;-66
2023/09/05 04:10:42;;;;;;;3.53;3.23;;;;;;;11.38;100.00;96942.31;4991281;28;105953;-66
2023/09/05 04:13:11;;;;;;;5.27;3.50;;;;;;;11.25;100.00;96939.16;4971914;28;104392;-66
2023/09/05 04:15:38;;;;;;;6.27;3.83;;;;;;;11.29;100.00;96940.31;4971176;28;105952;-67
2023/09/05 04:18:06;;;;;;;3.63;3.33;;;;;;;11.30;100.00;96942.75;4971507;28;102048;-67
2023/09/05 04:20:33;;;;;;;7.23;4.40;;;;;;;11.33;100.00;96942.25;4971678;28;105280;-68
2023/09/05 04:23:00;;;;;;;5.10;3.90;;;;;;;11.34;100.00;96943.84;4970816;28;105452;-68
2023/09/05 04:25:40;;;;;;;5.37;3.40;;;;;;;11.37;100.00;96947.88;4971648;28;101877;-68
2023/09/05 04:28:13;;;;;;;3.97;3.57;;;;;;;11.29;100.00;96950.97;4971221;28;105590;-68
2023/09/05 04:30:40;;;;;;;5.30;4.10;;;;;;;11.32;100.00;96964.59;4970882;28;105612;-66
2023/09/05 04:33:10;;;;;;;3.97;3.60;;;;;;;11.28;100.00;96954.69;4991410;28;102207;-66
2023/09/05 04:35:39;;;;;;;5.40;3.80;;;;;;;11.32;100.00;96958.44;4988650;28;102878;-66
2023/09/05 04:38:06;;;;;;;4.30;3.90;;;;;;;11.07;100.00;96952.72;4971544;28;101910;-66
2023/09/05 04:40:33;;;;;;;4.00;3.57;;;;;;;11.02;100.00;96955.28;4971256;28;105878;-66
2023/09/05 04:43:01;;;;;;;4.00;3.60;;;;;;;11.07;100.00;96956.16;4970696;28;105561;-66
2023/09/05 04:45:30;;;;;;;4.27;3.70;;;;;;;10.96;100.00;96961.56;4988888;28;101970;-66
2023/09/05 04:47:57;;;;;;;3.97;3.27;;;;;;;10.89;100.00;96961.69;4991555;28;105696;-66
2023/09/05 04:50:24;;;;;;;3.50;3.20;;;;;;;10.91;100.00;96956.13;4974104;28;105809;-67
2023/09/05 04:52:51;;;;;;;3.60;3.30;;;;;;;11.04;100.00;96961.97;4974734;28;102099;-66
2023/09/05 04:55:18;;;;;;;3.67;3.37;;;;;;;10.99;100.00;96955.75;4977515;28;105274;-67
2023/09/05 04:57:47;;;;;;;3.50;3.20;;;;;;;11.03;100.00;96963.03;4991246;28;102006;-67
2023/09/05 05:00:18;;;;;;;3.57;3.23;;;;;;;11.19;100.00;96958.78;4992768;28;103056;-67
2023/09/05 05:02:46;;;;;;;4.73;4.03;;;;;;;11.29;100.00;96959.72;4990568;28;105611;-67
2023/09/05 05:05:13;;;;;;;4.00;3.60;;;;;;;11.37;100.00;96953.22;4974688;28;101925;-67
2023/09/05 05:07:40;;;;;;;4.30;3.90;;;;;;;11.45;100.00;96960.81;4991198;28;105511;-67
2023/09/05 05:10:08;;;;;;;4.40;4.00;;;;;;;11.49;100.00;96956.59;4973953;28;105943;-67
2023/09/05 05:12:35;;;;;;;5.57;3.70;;;;;;;11.54;100.00;96960.16;4974449;28;101903;-66
2023/09/05 05:15:02;;;;;;;4.07;3.53;;;;;;;11.57;100.00;96961.53;4974636;28;105862;-66
2023/09/05 05:17:30;;;;;;;3.97;3.57;;;;;;;11.65;100.00;96956.66;4993201;28;101958;-66
2023/09/05 05:19:59;;;;;;;5.17;3.60;;;;;;;11.80;100.00;96962.22;4974437;28;104017;-66
2023/09/05 05:22:26;;;;;;;4.30;3.90;;;;;;;11.91;100.00;96966.63;4973797;28;104484;-66
2023/09/05 05:24:53;;;;;;;5.40;4.00;;;;;;;12.02;100.00;96959.59;4990941;28;101951;-66
2023/09/05 05:27:20;;;;;;;4.13;3.23;;;;;;;12.16;100.00;96963.53;4990448;28;105992;-66
2023/09/05 05:29:47;;;;;;;4.10;3.70;;;;;;;12.28;100.00;96961.56;4973715;28;104246;-66
2023/09/05 05:32:14;;;;;;;5.33;4.00;;;;;;;12.40;100.00;96967.56;4990544;28;102012;-66
2023/09/05 05:34:41;;;;;;;4.50;3.90;;;;;;;12.57;100.00;96970.97;4990646;28;105541;-66
2023/09/05 05:37:09;;;;;;;4.93;3.80;;;;;;;12.64;100.00;96967.06;4994911;28;102616;-66
2023/09/05 05:39:36;;;;;;;4.63;4.00;;;;;;;12.75;100.00;96976.03;4991960;28;102897;-66
2023/09/05 05:42:04;;;;;;;5.07;4.57;;;;;;;12.68;100.00;96978.88;4973447;28;105737;-66
2023/09/05 05:44:31;;;;;;;7.17;4.57;;;;;;;12.74;100.00;96977.06;4990463;28;103556;-66
2023/09/05 05:46:58;;;;;;;5.70;4.30;;;;;;;12.78;100.00;96981.66;4990416;28;105302;-66
2023/09/05 05:49:28;;;;;;;4.83;4.30;;;;;;;12.90;100.00;96978.84;4989870;28;105470;-66
2023/09/05 05:51:56;;;;;;;9.77;4.73;;;;;;;13.02;100.00;96982.22;4973894;28;102061;-66
2023/09/05 05:54:25;;;;;;;8.80;4.90;;;;;;;13.15;100.00;96969.28;4990429;28;105693;-66
2023/09/05 05:56:56;;;;;;;9.30;4.83;;;;;;;13.36;100.00;96970.28;4988544;28;105861;-65
2023/09/05 05:59:24;;;;;;;6.20;4.43;;;;;;;13.56;100.00;96970.44;4977163;28;101989;-66
2023/09/05 06:01:52;;;;;;;7.90;4.53;;;;;;;13.67;100.00;96969.47;4972945;28;105622;-69
2023/09/05 06:04:19;;;;;;;8.83;4.73;;;;;;;13.82;100.00;96973.09;4991978;28;101944;-68
2023/09/05 06:06:48;;;;;;;7.30;4.60;;;;;;;13.93;100.00;96980.13;4974539;28;105256;-67
2023/09/05 06:09:17;;;;;;;6.37;4.40;;;;;;;14.07;100.00;96972.44;4973709;28;105878;-67
2023/09/05 06:11:46;;;;;;;6.57;4.97;;;;;;;14.22;100.00;96968.03;4974537;28;101789;-67
2023/09/05 06:14:14;;;;;;;8.77;5.23;;;;;;;14.36;100.00;96965.69;4974211;28;105280;-67
2023/09/05 06:16:41;;;;;;;11.00;5.03;;;;;;;14.38;100.00;96971.59;4973684;28;105592;-67
2023/09/05 06:19:09;;;;;;;8.53;4.40;;;;;;;14.57;100.00;96962.88;4974276;28;102049;-68
2023/09/05 06:21:36;;;;;;;15.20;5.40;;;;;;;14.66;100.00;96963.16;4977057;28;105705;-67
2023/09/05 06:24:03;;;;;;;9.43;5.33;;;;;;;14.80;100.00;96967.78;4974094;28;101986;-67
2023/09/05 06:26:30;;;;;;;9.17;4.80;;;;;;;14.95;100.00;96965.16;4991687;28;102886;-68
2023/09/05 06:28:59;;;;;;;8.40;5.20;;;;;;;15.03;100.00;96964.63;4973522;28;104351;-69
2023/09/05 06:31:26;;;;;;;6.17;4.37;;;;;;;15.24;100.00;96968.97;4990646;28;102045;-69
2023/09/05 06:33:53;;;;;;;10.03;4.40;;;;;;;15.42;100.00;96965.00;4990690;28;105322;-69
2023/09/05 06:36:20;;;;;;;6.60;4.40;;;;;;;15.56;100.00;96971.44;4973142;28;105557;-69
2023/09/05 06:38:47;;;;;;;5.30;4.80;;;;;;;15.67;100.00;96968.50;4973883;28;101996;-69
2023/09/05 06:41:15;;;;;;;4.83;4.13;;;;;;;15.72;100.00;96965.00;4992018;28;102883;-69
2023/09/05 06:43:42;;;;;;;5.30;4.50;;;;;;;15.69;100.00;96977.06;4976618;28;105761;-69
2023/09/05 06:46:11;;;;;;;5.70;4.30;;;;;;;15.81;100.00;96971.44;4973786;28;105291;-69
2023/09/05 06:48:40;;;;;;;5.43;4.70;;;;;;;15.93;100.00;96977.34;4989790;28;105688;-69
2023/09/05 06:51:07;;;;;;;4.60;4.03;;;;;;;16.14;100.00;96970.88;4973815;28;101920;-66
2023/09/05 06:53:34;;;;;;;4.50;4.10;;;;;;;16.24;100.00;96974.34;4973695;28;105437;-68
2023/09/05 06:56:01;;;;;;;6.97;4.10;;;;;;;16.34;100.00;96974.31;4973072;28;105522;-67
2023/09/05 06:58:28;;;;;;;4.33;3.93;;;;;;;16.53;100.00;96966.50;4991678;28;102011;-67
2023/09/05 07:00:55;;;;;;;4.07;3.67;;;;;;;16.70;100.00;96962.44;4991726;28;102859;-68
2023/09/05 07:03:25;;;;;;;4.50;3.80;;;;;;;16.76;100.00;96968.56;4972980;28;104214;-68
2023/09/05 07:05:53;;;;;;;4.23;3.83;;;;;;;16.88;100.00;96961.81;4993536;28;101962;-67
2023/09/05 07:08:22;;;;;;;4.20;3.80;;;;;;;17.09;100.00;96957.13;4989032;28;105488;-67
2023/09/05 07:10:49;;;;;;;4.83;3.90;;;;;;;17.05;100.00;96958.78;4973560;28;102020;-66
2023/09/05 07:13:16;;;;;;;5.73;3.67;;;;;;;17.28;100.00;96953.50;4989873;28;105689;-66
2023/09/05 07:15:44;;;;;;;4.03;3.63;;;;;;;17.42;100.00;96959.09;4990831;28;103140;-67
2023/09/05 07:18:12;;;;;;;4.10;3.77;;;;;;;17.54;100.00;96951.50;4991076;28;101855;-67
2023/09/05 07:20:41;;;;;;;4.10;3.73;;;;;;;17.59;100.00;96948.75;4973342;28;105381;-67
2023/09/05 07:23:08;;;;;;;4.03;3.50;;;;;;;17.59;100.00;96954.94;4972532;28;105513;-66
2023/09/05 07:25:38;;;;;;;5.10;4.10;;;;;;;17.75;100.00;96953.75;4993195;28;102189;-67
2023/09/05 07:28:05;;;;;;;3.80;3.40;;;;;;;18.00;100.00;96950.03;4990309;28;101984;-66
2023/09/05 07:30:32;;;;;;;4.07;3.67;;;;;;;18.11;100.00;96962.31;4973046;28;101879;-66
2023/09/05 07:33:00;;;;;;;4.40;3.27;;;;;;;18.05;100.00;96964.22;4991158;28;102705;-67
2023/09/05 07:35:27;;;;;;;4.27;3.27;;;;;;;18.19;100.00;96950.91;4972423;28;105830;-67
2023/09/05 07:37:55;;;;;;;4.97;3.30;;;;;;;18.61;100.00;96967.19;4989427;28;102005;-69
2023/09/05 07:40:23;;;;;;;4.90;3.47;;;;;;;18.66;100.00;96970.66;4972759;28;105443;-66
2023/09/05 07:42:53;;;;;;;3.47;3.17;;;;;;;18.73;100.00;96968.41;4972046;28;105765;-68
2023/09/05 07:45:24;;;;;;;4.37;3.97;;;;;;;18.82;100.00;96963.19;4972899;28;101938;-67
2023/09/05 07:47:53;;;;;;;3.30;3.07;;;;;;;19.00;100.00;96965.91;4975776;28;105609;-67
2023/09/05 07:50:20;;;;;;;3.57;3.27;;;;;;;19.13;100.00;96967.09;4990802;28;101791;-67
2023/09/05 07:52:47;;;;;;;3.50;3.30;;;;;;;19.23;100.00;96967.00;4972805;28;105430;-67
2023/09/05 07:55:17;;;;;;;3.87;3.10;;;;;;;19.14;100.00;96960.59;4988639;28;105619;-67
2023/09/05 07:57:46;;;;;;;2.93;2.60;;;;;;;19.32;100.00;96962.53;4972520;28;102011;-67
2023/09/05 08:01:27;;;;;;;;;;;;;;;-141.26;100.00;62741.75;1028234;28;45772137;-67
2023/09/05 08:04:17;;;;;;;2.90;2.63;;;;;;;20.28;100.00;96959.94;5;36768366;45773322;-67
2023/09/05 08:06:47;;;;;;;3.13;2.80;;;;;;;19.94;100.00;96962.13;4989279;28;102210;-67
2023/09/05 08:09:15;;;;;;;3.40;3.10;;;;;;;19.56;100.00;96952.47;4971867;28;105636;-67
2023/09/05 08:11:45;;;;;;;3.93;3.00;;;;;;;19.98;100.00;96955.81;4990233;28;102146;-67
2023/09/05 08:14:12;;;;;;;3.83;3.10;;;;;;;20.18;100.00;96963.63;4972506;28;105746;-67
2023/09/05 08:16:42;;;;;;;3.07;2.87;;;;;;;20.27;100.00;96955.63;4991735;28;106004;-67
2023/09/05 08:19:09;;;;;;;3.17;2.97;;;;;;;20.20;100.00;96960.59;4971327;28;105637;-67
2023/09/05 08:21:36;;;;;;;4.80;3.20;;;;;;;20.13;100.00;96958.31;4970407;28;105856;-67
2023/09/05 08:24:04;;;;;;;4.47;2.90;;;;;;;20.44;100.00;96964.75;4989651;28;102195;-67
2023/09/05 08:26:34;;;;;;;3.07;2.77;;;;;;;20.64;100.00;96948.16;4967804;28;105838;-67
2023/09/05 08:29:03;;;;;;;3.30;2.83;;;;;;;20.70;100.00;96951.56;4967619;28;105383;-67
2023/09/05 08:31:31;;;;;;;3.17;2.87;;;;;;;20.94;100.00;96946.75;4969764;28;102066;-67
2023/09/05 08:33:58;;;;;;;3.53;2.90;;;;;;;21.10;100.00;96939.94;4968179;28;105562;-67
2023/09/05 08:36:27;;;;;;;2.83;2.40;;;;;;;21.25;100.00;96950.44;4971135;28;105620;-67
2023/09/05 08:38:55;;;;;;;3.00;2.70;;;;;;;21.34;100.00;96948.59;4968344;28;105489;-67
2023/09/05 08:41:26;;;;;;;3.10;2.60;;;;;;;21.14;100.00;96947.13;4967482;28;104436;-67
2023/09/05 08:43:56;;;;;;;3.03;2.53;;;;;;;21.47;100.00;96955.88;4968069;28;102032;-67
2023/09/05 08:46:25;;;;;;;3.47;2.90;;;;;;;21.44;100.00;96953.78;4968085;28;105448;-67
2023/09/05 08:48:52;;;;;;;2.40;2.20;;;;;;;21.15;100.00;96948.72;4968868;28;103215;-67
2023/09/05 08:51:20;;;;;;;4.67;2.80;;;;;;;21.12;100.00;96948.53;4984621;28;102242;-67
2023/09/05 08:53:55;;;;;;;4.17;2.50;;;;;;;21.29;100.00;96959.53;4984526;28;105231;-67
2023/09/05 08:56:28;;;;;;;3.00;2.37;;;;;;;21.47;100.00;96955.88;4967322;28;105487;-67
2023/09/05 08:59:01;;;;;;;2.90;2.67;;;;;;;21.39;100.00;96948.47;4971408;28;101899;-67
2023/09/05 09:01:33;;;;;;;2.80;2.60;;;;;;;21.70;100.00;96954.81;4967470;28;106048;-67
2023/09/05 09:04:03;;;;;;;4.93;2.73;;;;;;;21.94;100.00;96947.19;4967940;28;102256;-67
2023/09/05 09:06:30;;;;;;;2.93;2.70;;;;;;;22.22;100.00;96941.31;4967817;28;105233;-67
2023/09/05 09:08:57;;;;;;;2.80;2.60;;;;;;;22.25;100.00;96942.59;4968680;28;103413;-67
2023/09/05 09:11:27;;;;;;;2.80;2.60;;;;;;;22.29;100.00;96924.63;4967982;28;101942;-67
2023/09/05 09:14:00;;;;;;;5.20;2.73;;;;;;;22.51;100.00;96928.09;4967809;28;104221;-67
2023/09/05 09:16:31;;;;;;;6.00;2.77;;;;;;;22.96;100.00;96929.53;4967335;28;105432;-67
2023/09/05 09:19:05;;;;;;;3.93;2.70;;;;;;;23.15;100.00;96927.31;4967786;28;101961;-67
2023/09/05 09:21:36;;;;;;;2.73;2.50;;;;;;;23.27;100.00;96924.03;4970587;28;105280;-66
2023/09/05 09:24:10;;;;;;;2.47;2.23;;;;;;;22.91;100.00;96928.84;4967576;28;102216;-67
2023/09/05 09:26:38;;;;;;;2.97;2.40;;;;;;;23.46;100.00;96917.16;4967393;28;105634;-67
2023/09/05 09:29:08;;;;;;;2.70;2.50;;;;;;;23.33;100.00;96917.31;4967087;28;105137;-67
2023/09/05 09:31:39;;;;;;;3.27;2.40;;;;;;;23.70;100.00;96924.84;4985278;28;101963;-67
2023/09/05 09:34:13;;;;;;;2.97;2.40;;;;;;;23.81;100.00;96916.03;4970954;28;105474;-67
2023/09/05 09:36:51;;;;;;;3.47;2.70;;;;;;;23.76;100.00;96913.47;4970516;28;105410;-67
2023/09/05 09:39:24;;;;;;;2.20;2.00;;;;;;;23.91;100.00;96913.00;4970835;28;101902;-67
2023/09/05 09:41:54;;;;;;;2.50;2.30;;;;;;;24.00;100.00;96904.84;4970891;28;106155;-67
2023/09/05 09:44:32;;;;;;;5.63;2.80;;;;;;;24.19;100.00;96903.34;4989866;28;103859;-67
2023/09/05 09:47:02;;;;;;;3.50;2.90;;;;;;;24.11;100.00;96906.09;4970948;28;105842;-67
2023/09/05 09:49:36;;;;;;;2.77;2.57;;;;;;;24.28;100.00;96906.03;4970079;28;105449;-67
2023/09/05 09:52:05;;;;;;;2.50;2.30;;;;;;;24.31;100.00;96908.91;4970787;28;101927;-67
2023/09/05 09:54:37;;;;;;;3.17;2.50;;;;;;;24.55;100.00;96895.53;4970493;28;105195;-67
2023/09/05 09:57:09;;;;;;;3.20;2.80;;;;;;;24.86;100.00;96900.69;4970058;28;105513;-67
2023/09/05 09:59:43;;;;;;;2.63;2.43;;;;;;;24.59;100.00;96904.69;4972273;28;102226;-67
2023/09/05 10:02:17;;;;;;;3.30;2.40;;;;;;;24.51;100.00;96905.47;4972169;28;102634;-67
2023/09/05 10:04:46;;;;;;;2.63;2.30;;;;;;;24.77;100.00;96900.75;4969759;28;105776;-67
2023/09/05 10:07:19;;;;;;;2.70;2.50;;;;;;;24.79;100.00;96900.41;4973675;28;102034;-67
2023/09/05 10:09:50;;;;;;;2.87;2.40;;;;;;;24.94;100.00;96897.13;4971573;28;102832;-67
2023/09/05 10:12:23;;;;;;;3.30;2.50;;;;;;;25.07;100.00;96893.38;4972027;28;102233;-67
2023/09/05 10:14:54;;;;;;;2.93;2.40;;;;;;;24.83;100.00;96888.53;4970277;28;105504;-67
2023/09/05 10:17:28;;;;;;;4.93;2.37;;;;;;;25.10;100.00;96889.97;4969531;28;105622;-67
2023/09/05 10:20:02;;;;;;;3.77;2.30;;;;;;;25.44;100.00;96878.88;4986926;28;102070;-67
2023/09/05 10:22:32;;;;;;;3.77;2.20;;;;;;;25.51;100.00;96884.56;4970305;28;105336;-69
2023/09/05 10:25:06;;;;;;;2.27;1.90;;;;;;;25.42;100.00;96884.66;4969736;28;106080;-67
2023/09/05 10:27:35;;;;;;;2.70;1.97;;;;;;;25.25;100.00;96878.53;4969569;28;102313;-66
2023/09/05 10:30:11;;;;;;;2.20;2.00;;;;;;;25.37;100.00;96889.47;4972903;28;105397;-65
2023/09/05 10:32:44;;;;;;;3.33;2.30;;;;;;;25.65;100.00;96891.34;4970216;28;101907;-67
2023/09/05 10:35:20;;;;;;;2.93;2.10;;;;;;;25.17;100.00;96879.38;4970094;28;105221;-67
2023/09/05 10:37:52;;;;;;;2.70;2.33;;;;;;;24.96;100.00;96886.72;4969136;28;105782;-67
2023/09/05 10:40:31;;;;;;;2.43;2.23;;;;;;;25.53;100.00;96876.84;4971523;28;101813;-66
2023/09/05 10:43:03;;;;;;;3.23;2.17;;;;;;;25.37;100.00;96875.88;4970772;28;102688;-67
2023/09/05 10:45:35;;;;;;;2.20;2.00;;;;;;;25.72;100.00;96874.47;4969232;28;105670;-67
2023/09/05 10:48:15;;;;;;;2.90;2.03;;;;;;;26.06;100.00;96868.69;4969899;28;101903;-67
2023/09/05 10:51:06;;;;;;;2.00;1.90;;;;;;;25.55;100.00;96864.50;4989171;28;105781;-67
2023/09/05 10:53:37;;;;;;;3.40;2.27;;;;;;;25.78;100.00;96864.94;4969783;28;102049;-67
2023/09/05 10:56:27;;;;;;;2.03;1.93;;;;;;;25.64;100.00;96859.78;4969690;28;105350;-67
2023/09/05 10:58:58;;;;;;;2.00;1.90;;;;;;;25.83;100.00;96853.84;4968636;28;105121;-67
2023/09/05 11:01:45;;;;;;;2.00;1.90;;;;;;;25.86;100.00;96847.69;4969597;28;102028;-67
2023/09/05 11:04:26;;;;;;;2.27;2.07;;;;;;;26.04;100.00;96849.94;4969526;28;105291;-67
2023/09/05 11:06:57;;;;;;;2.50;2.00;;;;;;;26.05;100.00;96848.00;4968746;28;105845;-67
2023/09/05 11:09:24;;;;;;;2.13;1.93;;;;;;;26.33;100.00;96847.00;4986136;28;101927;-67
2023/09/05 11:11:52;;;;;;;2.13;2.03;;;;;;;26.45;100.00;96843.50;4969362;28;105334;-67
2023/09/05 11:14:30;;;;;;;4.60;2.20;;;;;;;26.26;100.00;96838.59;4973693;28;103095;-67
2023/09/05 11:16:57;;;;;;;2.80;2.20;;;;;;;26.62;100.00;96840.59;4970925;28;102340;-67
2023/09/05 11:19:37;;;;;;;2.50;2.30;;;;;;;26.68;100.00;96842.75;4985210;28;105483;-67
2023/09/05 11:22:15;;;;;;;2.37;1.80;;;;;;;26.73;98.59;96836.25;4969358;28;101981;-67
2023/09/05 11:24:47;;;;;;;2.00;1.90;;;;;;;26.96;100.00;96835.44;4969277;28;103877;-67
2023/09/05 11:27:25;;;;;;;2.07;1.93;;;;;;;27.05;100.00;96836.13;4967970;28;105452;-67
2023/09/05 11:29:55;;;;;;;2.97;2.20;;;;;;;27.04;97.09;96839.19;4970888;28;101914;-67
2023/09/05 11:32:29;;;;;;;2.67;1.90;;;;;;;27.15;96.96;96823.91;4970541;28;104014;-67
2023/09/05 11:34:58;;;;;;;2.40;2.20;;;;;;;27.13;100.00;96831.66;4968404;28;106043;-67